Terminal Aerodrome Forecast
Issued by NWS

Current Version | Previous Version | Graphics & Text | Print | Product List | Glossary On
Versions: 1 2 3 4 5 6 7 8 9 10 11 12 13 14 15 16 17
623
FTUS41 KPBZ 272057 AAA
TAFMGW
TAF AMD
KMGW 272057Z 2721/2818 23015G25KT P6SM -SHRA BKN050
     FM272300 23015G25KT P6SM BKN050
      TEMPO 2723/2801 22015G30KT P6SM -SHRA BKN035
     FM280100 21008KT P6SM BKN050
     FM281300 20004KT P6SM SCT035=

USA.gov is the U.S. government's official web portal to all federal, state and local government web resources and services.